sensor_id;sensor_type;location;lat;lon;timestamp;temperature;humidity
2945;DHT22;1482;51.398;7.128;2022-11-13T00:00:47;12.50;1.00
2945;DHT22;1482;51.398;7.128;2022-11-13T00:03:13;12.50;1.00
2945;DHT22;1482;51.398;7.128;2022-11-13T00:05:38;12.40;1.00
2945;DHT22;1482;51.398;7.128;2022-11-13T00:08:04;12.50;1.00
2945;DHT22;1482;51.398;7.128;2022-11-13T00:10:29;12.40;1.00
2945;DHT22;1482;51.398;7.128;2022-11-13T00:12:55;12.30;1.00
2945;DHT22;1482;51.398;7.128;2022-11-13T00:15:20;12.40;1.00
2945;DHT22;1482;51.398;7.128;2022-11-13T00:17:46;12.40;1.00
2945;DHT22;1482;51.398;7.128;2022-11-13T00:20:11;12.40;1.00
2945;DHT22;1482;51.398;7.128;2022-11-13T00:22:37;12.50;1.00
2945;DHT22;1482;51.398;7.128;2022-11-13T00:25:03;12.50;1.00
2945;DHT22;1482;51.398;7.128;2022-11-13T00:27:29;12.40;1.00
2945;DHT22;1482;51.398;7.128;2022-11-13T00:29:55;12.40;1.00
2945;DHT22;1482;51.398;7.128;2022-11-13T00:32:21;12.50;1.00
2945;DHT22;1482;51.398;7.128;2022-11-13T00:34:46;12.50;1.00
2945;DHT22;1482;51.398;7.128;2022-11-13T00:37:12;12.60;1.00
2945;DHT22;1482;51.398;7.128;2022-11-13T00:39:37;12.60;1.00
2945;DHT22;1482;51.398;7.128;2022-11-13T00:42:03;12.60;1.00
2945;DHT22;1482;51.398;7.128;2022-11-13T00:44:28;12.50;1.00
2945;DHT22;1482;51.398;7.128;2022-11-13T00:46:54;12.50;1.00
2945;DHT22;1482;51.398;7.128;2022-11-13T00:49:19;12.40;1.00
2945;DHT22;1482;51.398;7.128;2022-11-13T00:51:45;12.30;1.00
2945;DHT22;1482;51.398;7.128;2022-11-13T00:54:10;12.30;1.00
2945;DHT22;1482;51.398;7.128;2022-11-13T00:56:36;12.20;1.00
2945;DHT22;1482;51.398;7.128;2022-11-13T00:59:01;12.20;1.00
2945;DHT22;1482;51.398;7.128;2022-11-13T01:01:27;12.10;1.00
2945;DHT22;1482;51.398;7.128;2022-11-13T01:03:53;12.00;1.00
2945;DHT22;1482;51.398;7.128;2022-11-13T01:06:21;11.90;1.00
2945;DHT22;1482;51.398;7.128;2022-11-13T01:08:47;11.80;1.00
2945;DHT22;1482;51.398;7.128;2022-11-13T01:11:15;11.70;1.00
2945;DHT22;1482;51.398;7.128;2022-11-13T01:13:43;11.80;1.00
2945;DHT22;1482;51.398;7.128;2022-11-13T01:16:10;11.80;1.00
2945;DHT22;1482;51.398;7.128;2022-11-13T01:18:36;11.80;1.00
2945;DHT22;1482;51.398;7.128;2022-11-13T01:21:09;11.80;1.00
2945;DHT22;1482;51.398;7.128;2022-11-13T01:23:35;11.90;1.00
2945;DHT22;1482;51.398;7.128;2022-11-13T01:26:11;11.90;1.00
2945;DHT22;1482;51.398;7.128;2022-11-13T01:28:38;12.00;1.00
2945;DHT22;1482;51.398;7.128;2022-11-13T01:31:06;12.10;1.00
2945;DHT22;1482;51.398;7.128;2022-11-13T01:33:32;12.10;1.00
2945;DHT22;1482;51.398;7.128;2022-11-13T01:36:06;12.10;1.00
2945;DHT22;1482;51.398;7.128;2022-11-13T01:38:32;12.20;1.00
2945;DHT22;1482;51.398;7.128;2022-11-13T01:40:58;12.20;1.00
2945;DHT22;1482;51.398;7.128;2022-11-13T01:43:28;12.20;1.00
2945;DHT22;1482;51.398;7.128;2022-11-13T01:48:36;12.20;1.00
2945;DHT22;1482;51.398;7.128;2022-11-13T01:51:10;12.20;1.00
2945;DHT22;1482;51.398;7.128;2022-11-13T01:53:37;12.20;1.00
2945;DHT22;1482;51.398;7.128;2022-11-13T01:56:04;12.20;1.00
2945;DHT22;1482;51.398;7.128;2022-11-13T01:58:30;12.10;1.00
2945;DHT22;1482;51.398;7.128;2022-11-13T02:00:56;12.20;1.00
2945;DHT22;1482;51.398;7.128;2022-11-13T02:03:21;12.10;1.00
2945;DHT22;1482;51.398;7.128;2022-11-13T02:05:47;12.10;1.00
2945;DHT22;1482;51.398;7.128;2022-11-13T02:08:12;12.20;1.00
2945;DHT22;1482;51.398;7.128;2022-11-13T02:10:38;12.20;1.00
2945;DHT22;1482;51.398;7.128;2022-11-13T02:13:04;12.30;1.00
2945;DHT22;1482;51.398;7.128;2022-11-13T02:15:32;12.40;1.00
2945;DHT22;1482;51.398;7.128;2022-11-13T02:17:59;12.40;1.00
2945;DHT22;1482;51.398;7.128;2022-11-13T02:23:37;12.60;1.00
2945;DHT22;1482;51.398;7.128;2022-11-13T02:26:04;12.70;1.00
2945;DHT22;1482;51.398;7.128;2022-11-13T02:28:30;12.80;1.00
2945;DHT22;1482;51.398;7.128;2022-11-13T02:30:56;12.60;1.00
2945;DHT22;1482;51.398;7.128;2022-11-13T02:33:31;12.60;1.00
2945;DHT22;1482;51.398;7.128;2022-11-13T02:35:57;12.70;1.00
2945;DHT22;1482;51.398;7.128;2022-11-13T02:38:23;12.60;1.00
2945;DHT22;1482;51.398;7.128;2022-11-13T02:40:48;12.60;1.00
2945;DHT22;1482;51.398;7.128;2022-11-13T02:43:14;12.50;1.00
2945;DHT22;1482;51.398;7.128;2022-11-13T02:45:40;12.50;1.00
2945;DHT22;1482;51.398;7.128;2022-11-13T02:48:06;12.50;1.00
2945;DHT22;1482;51.398;7.128;2022-11-13T02:50:33;12.40;1.00
2945;DHT22;1482;51.398;7.128;2022-11-13T02:52:59;12.30;1.00
2945;DHT22;1482;51.398;7.128;2022-11-13T02:55:25;12.20;1.00
2945;DHT22;1482;51.398;7.128;2022-11-13T02:57:50;12.10;1.00
2945;DHT22;1482;51.398;7.128;2022-11-13T03:00:16;11.90;1.00
2945;DHT22;1482;51.398;7.128;2022-11-13T03:02:42;11.80;1.00
2945;DHT22;1482;51.398;7.128;2022-11-13T03:05:08;11.80;1.00
2945;DHT22;1482;51.398;7.128;2022-11-13T03:07:34;11.90;1.00
2945;DHT22;1482;51.398;7.128;2022-11-13T03:09:59;12.00;1.00
2945;DHT22;1482;51.398;7.128;2022-11-13T03:12:25;12.00;1.00
2945;DHT22;1482;51.398;7.128;2022-11-13T03:14:50;12.10;1.00
2945;DHT22;1482;51.398;7.128;2022-11-13T03:17:16;12.10;1.00
2945;DHT22;1482;51.398;7.128;2022-11-13T03:19:41;12.10;1.00
2945;DHT22;1482;51.398;7.128;2022-11-13T03:22:07;12.00;1.00
2945;DHT22;1482;51.398;7.128;2022-11-13T03:24:33;12.00;1.00
2945;DHT22;1482;51.398;7.128;2022-11-13T03:26:58;11.90;1.00
2945;DHT22;1482;51.398;7.128;2022-11-13T03:29:24;11.90;1.00
2945;DHT22;1482;51.398;7.128;2022-11-13T03:31:49;11.80;1.00
2945;DHT22;1482;51.398;7.128;2022-11-13T03:34:15;11.80;1.00
2945;DHT22;1482;51.398;7.128;2022-11-13T03:36:40;11.70;1.00
2945;DHT22;1482;51.398;7.128;2022-11-13T03:39:06;11.60;1.00
2945;DHT22;1482;51.398;7.128;2022-11-13T03:41:31;11.50;1.00
2945;DHT22;1482;51.398;7.128;2022-11-13T03:43:57;11.30;1.00
2945;DHT22;1482;51.398;7.128;2022-11-13T03:46:22;11.20;1.00
2945;DHT22;1482;51.398;7.128;2022-11-13T03:48:48;11.10;1.00
2945;DHT22;1482;51.398;7.128;2022-11-13T03:51:13;11.00;1.00
2945;DHT22;1482;51.398;7.128;2022-11-13T03:53:39;10.80;1.00
2945;DHT22;1482;51.398;7.128;2022-11-13T03:56:05;10.70;1.00
2945;DHT22;1482;51.398;7.128;2022-11-13T03:58:30;10.50;1.00
2945;DHT22;1482;51.398;7.128;2022-11-13T04:00:56;10.40;1.00
2945;DHT22;1482;51.398;7.128;2022-11-13T04:03:22;10.40;1.00
2945;DHT22;1482;51.398;7.128;2022-11-13T04:05:48;10.30;1.00
2945;DHT22;1482;51.398;7.128;2022-11-13T04:08:14;10.30;1.00
2945;DHT22;1482;51.398;7.128;2022-11-13T04:10:40;10.40;1.00
2945;DHT22;1482;51.398;7.128;2022-11-13T04:13:05;10.50;1.00
2945;DHT22;1482;51.398;7.128;2022-11-13T04:15:31;10.60;1.00
2945;DHT22;1482;51.398;7.128;2022-11-13T04:17:57;10.70;1.00
2945;DHT22;1482;51.398;7.128;2022-11-13T04:20:22;10.80;1.00
2945;DHT22;1482;51.398;7.128;2022-11-13T04:22:49;11.00;1.00
2945;DHT22;1482;51.398;7.128;2022-11-13T04:25:15;11.10;1.00
2945;DHT22;1482;51.398;7.128;2022-11-13T04:27:40;11.20;1.00
2945;DHT22;1482;51.398;7.128;2022-11-13T04:30:06;11.40;1.00
2945;DHT22;1482;51.398;7.128;2022-11-13T04:32:32;11.60;1.00
2945;DHT22;1482;51.398;7.128;2022-11-13T04:34:57;11.80;1.00
2945;DHT22;1482;51.398;7.128;2022-11-13T04:37:23;11.90;1.00
2945;DHT22;1482;51.398;7.128;2022-11-13T04:39:49;12.00;1.00
2945;DHT22;1482;51.398;7.128;2022-11-13T04:42:14;12.20;1.00
2945;DHT22;1482;51.398;7.128;2022-11-13T04:44:58;12.30;1.00
2945;DHT22;1482;51.398;7.128;2022-11-13T04:47:24;12.40;1.00
2945;DHT22;1482;51.398;7.128;2022-11-13T04:49:50;12.40;1.00
2945;DHT22;1482;51.398;7.128;2022-11-13T04:52:15;12.50;1.00
2945;DHT22;1482;51.398;7.128;2022-11-13T04:54:41;12.60;1.00
2945;DHT22;1482;51.398;7.128;2022-11-13T04:57:06;12.70;1.00
2945;DHT22;1482;51.398;7.128;2022-11-13T04:59:32;12.70;1.00
2945;DHT22;1482;51.398;7.128;2022-11-13T05:01:58;12.80;1.00
2945;DHT22;1482;51.398;7.128;2022-11-13T05:04:23;12.80;1.00
2945;DHT22;1482;51.398;7.128;2022-11-13T05:06:49;12.80;1.00
2945;DHT22;1482;51.398;7.128;2022-11-13T05:09:14;12.80;1.00
2945;DHT22;1482;51.398;7.128;2022-11-13T05:11:40;12.60;1.00
2945;DHT22;1482;51.398;7.128;2022-11-13T05:14:06;12.50;1.00
2945;DHT22;1482;51.398;7.128;2022-11-13T05:16:34;12.40;1.00
2945;DHT22;1482;51.398;7.128;2022-11-13T05:18:59;12.40;1.00
2945;DHT22;1482;51.398;7.128;2022-11-13T05:21:25;12.20;1.00
2945;DHT22;1482;51.398;7.128;2022-11-13T05:23:50;12.10;1.00
2945;DHT22;1482;51.398;7.128;2022-11-13T05:26:16;12.10;1.00
2945;DHT22;1482;51.398;7.128;2022-11-13T05:28:42;12.00;1.00
2945;DHT22;1482;51.398;7.128;2022-11-13T05:31:12;12.00;1.00
2945;DHT22;1482;51.398;7.128;2022-11-13T05:33:39;11.90;1.00
2945;DHT22;1482;51.398;7.128;2022-11-13T05:36:08;11.90;1.00
2945;DHT22;1482;51.398;7.128;2022-11-13T05:38:34;11.90;1.00
2945;DHT22;1482;51.398;7.128;2022-11-13T05:41:02;11.90;1.00
2945;DHT22;1482;51.398;7.128;2022-11-13T05:43:28;12.00;1.00
2945;DHT22;1482;51.398;7.128;2022-11-13T05:46:05;12.00;1.00
2945;DHT22;1482;51.398;7.128;2022-11-13T05:48:31;12.10;1.00
2945;DHT22;1482;51.398;7.128;2022-11-13T05:51:09;12.20;1.00
2945;DHT22;1482;51.398;7.128;2022-11-13T05:53:35;12.30;1.00
2945;DHT22;1482;51.398;7.128;2022-11-13T05:56:13;12.30;1.00
2945;DHT22;1482;51.398;7.128;2022-11-13T05:58:40;12.40;1.00
2945;DHT22;1482;51.398;7.128;2022-11-13T06:01:25;12.30;1.00
2945;DHT22;1482;51.398;7.128;2022-11-13T06:03:51;12.30;1.00
2945;DHT22;1482;51.398;7.128;2022-11-13T06:06:18;12.20;1.00
2945;DHT22;1482;51.398;7.128;2022-11-13T06:08:45;12.10;1.00
2945;DHT22;1482;51.398;7.128;2022-11-13T06:11:13;11.90;1.00
2945;DHT22;1482;51.398;7.128;2022-11-13T06:13:39;11.80;1.00
2945;DHT22;1482;51.398;7.128;2022-11-13T06:16:07;11.60;1.00
2945;DHT22;1482;51.398;7.128;2022-11-13T06:18:34;11.40;1.00
2945;DHT22;1482;51.398;7.128;2022-11-13T06:21:04;11.20;1.00
2945;DHT22;1482;51.398;7.128;2022-11-13T06:23:32;11.00;1.00
2945;DHT22;1482;51.398;7.128;2022-11-13T06:26:12;10.90;1.00
2945;DHT22;1482;51.398;7.128;2022-11-13T06:28:38;10.70;1.00
2945;DHT22;1482;51.398;7.128;2022-11-13T06:31:14;10.50;1.00
2945;DHT22;1482;51.398;7.128;2022-11-13T06:33:41;10.40;1.00
2945;DHT22;1482;51.398;7.128;2022-11-13T06:36:16;10.40;1.00
2945;DHT22;1482;51.398;7.128;2022-11-13T06:38:42;10.40;1.00
2945;DHT22;1482;51.398;7.128;2022-11-13T06:41:14;10.40;1.00
2945;DHT22;1482;51.398;7.128;2022-11-13T06:43:40;10.30;1.00
2945;DHT22;1482;51.398;7.128;2022-11-13T06:46:09;10.30;1.00
2945;DHT22;1482;51.398;7.128;2022-11-13T06:48:36;10.30;1.00
2945;DHT22;1482;51.398;7.128;2022-11-13T06:51:03;10.30;1.00
2945;DHT22;1482;51.398;7.128;2022-11-13T06:53:29;10.30;1.00
2945;DHT22;1482;51.398;7.128;2022-11-13T06:55:56;10.30;1.00
2945;DHT22;1482;51.398;7.128;2022-11-13T06:58:22;10.30;1.00
2945;DHT22;1482;51.398;7.128;2022-11-13T07:00:47;10.30;1.00
2945;DHT22;1482;51.398;7.128;2022-11-13T07:05:40;10.40;1.00
2945;DHT22;1482;51.398;7.128;2022-11-13T07:08:06;10.40;1.00
2945;DHT22;1482;51.398;7.128;2022-11-13T07:10:31;10.50;1.00
2945;DHT22;1482;51.398;7.128;2022-11-13T07:13:00;10.50;1.00
2945;DHT22;1482;51.398;7.128;2022-11-13T07:15:26;10.50;1.00
2945;DHT22;1482;51.398;7.128;2022-11-13T07:17:52;10.70;1.00
2945;DHT22;1482;51.398;7.128;2022-11-13T07:20:17;12.10;1.00
2945;DHT22;1482;51.398;7.128;2022-11-13T07:22:43;14.50;1.00
2945;DHT22;1482;51.398;7.128;2022-11-13T07:25:08;17.10;1.00
2945;DHT22;1482;51.398;7.128;2022-11-13T07:27:34;19.50;1.00
2945;DHT22;1482;51.398;7.128;2022-11-13T07:30:00;21.60;1.00
2945;DHT22;1482;51.398;7.128;2022-11-13T07:32:25;23.10;1.00
2945;DHT22;1482;51.398;7.128;2022-11-13T07:34:51;23.50;1.00
2945;DHT22;1482;51.398;7.128;2022-11-13T07:37:16;23.40;1.00
2945;DHT22;1482;51.398;7.128;2022-11-13T07:39:42;22.70;1.00
2945;DHT22;1482;51.398;7.128;2022-11-13T07:42:07;22.00;1.00
2945;DHT22;1482;51.398;7.128;2022-11-13T07:44:33;21.50;1.00
2945;DHT22;1482;51.398;7.128;2022-11-13T07:46:58;21.30;1.00
2945;DHT22;1482;51.398;7.128;2022-11-13T07:49:24;21.30;1.00
2945;DHT22;1482;51.398;7.128;2022-11-13T07:51:50;21.40;1.00
2945;DHT22;1482;51.398;7.128;2022-11-13T07:54:16;21.30;1.00
2945;DHT22;1482;51.398;7.128;2022-11-13T07:56:43;20.90;1.00
2945;DHT22;1482;51.398;7.128;2022-11-13T07:59:08;20.50;1.00
2945;DHT22;1482;51.398;7.128;2022-11-13T08:01:34;20.30;1.00
2945;DHT22;1482;51.398;7.128;2022-11-13T08:03:59;20.90;1.00
2945;DHT22;1482;51.398;7.128;2022-11-13T08:06:25;22.30;1.00
2945;DHT22;1482;51.398;7.128;2022-11-13T08:08:52;24.40;1.00
2945;DHT22;1482;51.398;7.128;2022-11-13T08:11:18;26.10;1.00
2945;DHT22;1482;51.398;7.128;2022-11-13T08:13:44;27.30;1.00
2945;DHT22;1482;51.398;7.128;2022-11-13T08:16:09;27.50;1.00
2945;DHT22;1482;51.398;7.128;2022-11-13T08:18:35;27.80;1.00
2945;DHT22;1482;51.398;7.128;2022-11-13T08:21:02;28.50;1.00
2945;DHT22;1482;51.398;7.128;2022-11-13T08:23:28;29.70;1.00
2945;DHT22;1482;51.398;7.128;2022-11-13T08:25:53;30.80;1.00
2945;DHT22;1482;51.398;7.128;2022-11-13T08:28:19;31.40;1.00
2945;DHT22;1482;51.398;7.128;2022-11-13T08:30:45;31.70;1.00
2945;DHT22;1482;51.398;7.128;2022-11-13T08:33:11;32.50;1.00
2945;DHT22;1482;51.398;7.128;2022-11-13T08:35:36;33.50;1.00
2945;DHT22;1482;51.398;7.128;2022-11-13T08:38:06;34.30;1.00
2945;DHT22;1482;51.398;7.128;2022-11-13T08:40:33;34.90;1.00
2945;DHT22;1482;51.398;7.128;2022-11-13T08:43:00;35.30;1.00
2945;DHT22;1482;51.398;7.128;2022-11-13T08:45:26;35.70;1.00
2945;DHT22;1482;51.398;7.128;2022-11-13T08:47:51;36.40;1.00
2945;DHT22;1482;51.398;7.128;2022-11-13T08:50:17;36.80;1.00
2945;DHT22;1482;51.398;7.128;2022-11-13T08:52:43;37.30;1.00
2945;DHT22;1482;51.398;7.128;2022-11-13T08:55:08;37.90;1.00
2945;DHT22;1482;51.398;7.128;2022-11-13T08:57:34;38.10;1.00
2945;DHT22;1482;51.398;7.128;2022-11-13T08:59:59;38.50;1.00
2945;DHT22;1482;51.398;7.128;2022-11-13T09:02:26;38.60;1.00
2945;DHT22;1482;51.398;7.128;2022-11-13T09:04:52;38.20;1.00
2945;DHT22;1482;51.398;7.128;2022-11-13T09:07:17;38.40;1.00
2945;DHT22;1482;51.398;7.128;2022-11-13T09:09:43;38.10;1.00
2945;DHT22;1482;51.398;7.128;2022-11-13T09:12:08;38.20;1.00
2945;DHT22;1482;51.398;7.128;2022-11-13T09:14:35;37.90;1.00
2945;DHT22;1482;51.398;7.128;2022-11-13T09:17:01;38.10;1.00
2945;DHT22;1482;51.398;7.128;2022-11-13T09:19:27;38.30;1.00
2945;DHT22;1482;51.398;7.128;2022-11-13T09:21:52;38.30;1.00
2945;DHT22;1482;51.398;7.128;2022-11-13T09:24:18;38.40;1.00
2945;DHT22;1482;51.398;7.128;2022-11-13T09:26:44;38.40;1.00
2945;DHT22;1482;51.398;7.128;2022-11-13T09:29:09;38.10;1.00
2945;DHT22;1482;51.398;7.128;2022-11-13T09:31:35;37.90;1.00
2945;DHT22;1482;51.398;7.128;2022-11-13T09:34:02;37.00;1.00
2945;DHT22;1482;51.398;7.128;2022-11-13T09:36:28;36.00;1.00
2945;DHT22;1482;51.398;7.128;2022-11-13T09:38:53;35.10;1.00
2945;DHT22;1482;51.398;7.128;2022-11-13T09:41:22;33.70;1.00
2945;DHT22;1482;51.398;7.128;2022-11-13T09:43:53;32.30;1.00
2945;DHT22;1482;51.398;7.128;2022-11-13T09:48:54;29.50;1.00
2945;DHT22;1482;51.398;7.128;2022-11-13T09:51:25;28.50;1.00
2945;DHT22;1482;51.398;7.128;2022-11-13T09:53:52;27.00;1.00
2945;DHT22;1482;51.398;7.128;2022-11-13T09:56:27;25.90;1.00
2945;DHT22;1482;51.398;7.128;2022-11-13T10:01:57;23.70;1.00
2945;DHT22;1482;51.398;7.128;2022-11-13T10:04:49;23.20;1.00
2945;DHT22;1482;51.398;7.128;2022-11-13T10:07:35;22.00;1.00
2945;DHT22;1482;51.398;7.128;2022-11-13T10:13:12;21.20;1.00
2945;DHT22;1482;51.398;7.128;2022-11-13T10:15:40;20.60;1.00
2945;DHT22;1482;51.398;7.128;2022-11-13T10:18:12;20.40;1.00
2945;DHT22;1482;51.398;7.128;2022-11-13T10:20:46;19.80;1.00
2945;DHT22;1482;51.398;7.128;2022-11-13T10:23:21;19.20;1.00
2945;DHT22;1482;51.398;7.128;2022-11-13T10:25:47;19.00;1.00
2945;DHT22;1482;51.398;7.128;2022-11-13T10:28:20;18.90;1.00
2945;DHT22;1482;51.398;7.128;2022-11-13T10:30:48;18.80;1.00
2945;DHT22;1482;51.398;7.128;2022-11-13T10:33:17;18.90;1.00
2945;DHT22;1482;51.398;7.128;2022-11-13T10:38:47;19.00;1.00
2945;DHT22;1482;51.398;7.128;2022-11-13T10:41:19;18.90;1.00
2945;DHT22;1482;51.398;7.128;2022-11-13T10:44:01;19.00;1.00
2945;DHT22;1482;51.398;7.128;2022-11-13T10:46:29;18.80;1.00
2945;DHT22;1482;51.398;7.128;2022-11-13T10:49:10;18.60;1.00
2945;DHT22;1482;51.398;7.128;2022-11-13T10:51:36;18.60;1.00
2945;DHT22;1482;51.398;7.128;2022-11-13T10:54:20;18.70;1.00
2945;DHT22;1482;51.398;7.128;2022-11-13T10:57:02;18.90;1.00
2945;DHT22;1482;51.398;7.128;2022-11-13T10:59:39;19.10;1.00
2945;DHT22;1482;51.398;7.128;2022-11-13T11:02:38;19.00;1.00
2945;DHT22;1482;51.398;7.128;2022-11-13T11:07:41;18.90;1.00
2945;DHT22;1482;51.398;7.128;2022-11-13T11:12:55;19.00;1.00
2945;DHT22;1482;51.398;7.128;2022-11-13T11:17:53;19.30;1.00
2945;DHT22;1482;51.398;7.128;2022-11-13T11:20:47;19.50;1.00
2945;DHT22;1482;51.398;7.128;2022-11-13T11:25:49;19.80;1.00
2945;DHT22;1482;51.398;7.128;2022-11-13T11:28:30;20.10;1.00
2945;DHT22;1482;51.398;7.128;2022-11-13T11:34:18;20.40;1.00
2945;DHT22;1482;51.398;7.128;2022-11-13T11:39:35;20.50;1.00
2945;DHT22;1482;51.398;7.128;2022-11-13T11:45:01;20.50;1.00
2945;DHT22;1482;51.398;7.128;2022-11-13T11:47:29;20.70;1.00
2945;DHT22;1482;51.398;7.128;2022-11-13T11:49:55;20.80;1.00
2945;DHT22;1482;51.398;7.128;2022-11-13T11:52:46;20.80;1.00
2945;DHT22;1482;51.398;7.128;2022-11-13T11:58:12;20.90;1.00
2945;DHT22;1482;51.398;7.128;2022-11-13T12:00:48;21.00;1.00
2945;DHT22;1482;51.398;7.128;2022-11-13T12:11:43;21.30;1.00
2945;DHT22;1482;51.398;7.128;2022-11-13T12:14:22;21.30;1.00
2945;DHT22;1482;51.398;7.128;2022-11-13T12:17:20;21.40;1.00
2945;DHT22;1482;51.398;7.128;2022-11-13T12:22:31;21.60;1.00
2945;DHT22;1482;51.398;7.128;2022-11-13T12:30:23;21.30;1.00
2945;DHT22;1482;51.398;7.128;2022-11-13T12:35:46;21.50;1.00
2945;DHT22;1482;51.398;7.128;2022-11-13T12:40:55;21.50;1.00
2945;DHT22;1482;51.398;7.128;2022-11-13T12:46:12;21.40;1.00
2945;DHT22;1482;51.398;7.128;2022-11-13T12:48:41;21.40;1.00
2945;DHT22;1482;51.398;7.128;2022-11-13T12:51:08;21.50;1.00
2945;DHT22;1482;51.398;7.128;2022-11-13T12:53:50;21.70;1.00
2945;DHT22;1482;51.398;7.128;2022-11-13T12:58:57;21.90;1.00
2945;DHT22;1482;51.398;7.128;2022-11-13T13:01:27;22.10;1.00
2945;DHT22;1482;51.398;7.128;2022-11-13T13:15:15;21.90;1.00
2945;DHT22;1482;51.398;7.128;2022-11-13T13:17:46;22.00;1.00
2945;DHT22;1482;51.398;7.128;2022-11-13T13:22:39;22.20;1.00
2945;DHT22;1482;51.398;7.128;2022-11-13T13:25:28;22.30;1.00
2945;DHT22;1482;51.398;7.128;2022-11-13T13:28:00;22.20;1.00
2945;DHT22;1482;51.398;7.128;2022-11-13T13:30:27;22.10;1.00
2945;DHT22;1482;51.398;7.128;2022-11-13T13:33:33;22.10;1.00
2945;DHT22;1482;51.398;7.128;2022-11-13T13:44:34;22.00;1.00
2945;DHT22;1482;51.398;7.128;2022-11-13T13:47:09;21.90;1.00
2945;DHT22;1482;51.398;7.128;2022-11-13T13:49:36;21.70;1.00
2945;DHT22;1482;51.398;7.128;2022-11-13T13:52:01;21.60;1.00
2945;DHT22;1482;51.398;7.128;2022-11-13T13:54:31;21.60;1.00
2945;DHT22;1482;51.398;7.128;2022-11-13T13:56:58;21.60;1.00
2945;DHT22;1482;51.398;7.128;2022-11-13T13:59:42;21.40;1.00
2945;DHT22;1482;51.398;7.128;2022-11-13T14:02:16;21.20;1.00
2945;DHT22;1482;51.398;7.128;2022-11-13T14:04:45;21.10;1.00
2945;DHT22;1482;51.398;7.128;2022-11-13T14:07:28;21.00;1.00
2945;DHT22;1482;51.398;7.128;2022-11-13T14:10:06;20.70;1.00
2945;DHT22;1482;51.398;7.128;2022-11-13T14:12:31;20.50;1.00
2945;DHT22;1482;51.398;7.128;2022-11-13T14:14:57;20.40;1.00
2945;DHT22;1482;51.398;7.128;2022-11-13T14:17:23;20.20;1.00
2945;DHT22;1482;51.398;7.128;2022-11-13T14:19:51;20.20;1.00
2945;DHT22;1482;51.398;7.128;2022-11-13T14:22:17;20.00;1.00
2945;DHT22;1482;51.398;7.128;2022-11-13T14:24:54;20.00;1.00
2945;DHT22;1482;51.398;7.128;2022-11-13T14:27:23;19.90;1.00
2945;DHT22;1482;51.398;7.128;2022-11-13T14:29:54;19.80;1.00
2945;DHT22;1482;51.398;7.128;2022-11-13T14:32:29;19.60;1.00
2945;DHT22;1482;51.398;7.128;2022-11-13T14:34:58;19.50;1.00
2945;DHT22;1482;51.398;7.128;2022-11-13T14:40:12;18.90;1.00
2945;DHT22;1482;51.398;7.128;2022-11-13T14:42:44;18.70;1.00
2945;DHT22;1482;51.398;7.128;2022-11-13T14:45:26;18.40;1.00
2945;DHT22;1482;51.398;7.128;2022-11-13T14:48:19;18.40;1.00
2945;DHT22;1482;51.398;7.128;2022-11-13T14:50:52;18.30;1.00
2945;DHT22;1482;51.398;7.128;2022-11-13T14:53:30;18.10;1.00
2945;DHT22;1482;51.398;7.128;2022-11-13T14:56:04;17.90;1.00
2945;DHT22;1482;51.398;7.128;2022-11-13T14:58:39;17.80;1.00
2945;DHT22;1482;51.398;7.128;2022-11-13T15:01:19;17.80;1.00
2945;DHT22;1482;51.398;7.128;2022-11-13T15:03:46;17.60;1.00
2945;DHT22;1482;51.398;7.128;2022-11-13T15:06:24;17.40;1.00
2945;DHT22;1482;51.398;7.128;2022-11-13T15:08:55;17.00;1.00
2945;DHT22;1482;51.398;7.128;2022-11-13T15:11:22;16.80;1.00
2945;DHT22;1482;51.398;7.128;2022-11-13T15:13:48;16.70;1.00
2945;DHT22;1482;51.398;7.128;2022-11-13T15:16:26;16.50;1.00
2945;DHT22;1482;51.398;7.128;2022-11-13T15:19:00;16.40;1.00
2945;DHT22;1482;51.398;7.128;2022-11-13T15:21:26;16.40;1.00
2945;DHT22;1482;51.398;7.128;2022-11-13T15:23:52;16.10;1.00
2945;DHT22;1482;51.398;7.128;2022-11-13T15:26:17;15.90;1.00
2945;DHT22;1482;51.398;7.128;2022-11-13T15:28:43;15.70;1.00
2945;DHT22;1482;51.398;7.128;2022-11-13T15:33:45;15.50;1.00
2945;DHT22;1482;51.398;7.128;2022-11-13T15:36:10;15.40;1.00
2945;DHT22;1482;51.398;7.128;2022-11-13T15:38:36;15.30;1.00
2945;DHT22;1482;51.398;7.128;2022-11-13T15:41:09;15.20;1.00
2945;DHT22;1482;51.398;7.128;2022-11-13T15:43:35;15.20;1.00
2945;DHT22;1482;51.398;7.128;2022-11-13T15:46:00;15.10;1.00
2945;DHT22;1482;51.398;7.128;2022-11-13T15:48:25;15.00;1.00
2945;DHT22;1482;51.398;7.128;2022-11-13T15:50:51;14.90;1.00
2945;DHT22;1482;51.398;7.128;2022-11-13T15:53:16;14.80;1.00
2945;DHT22;1482;51.398;7.128;2022-11-13T15:55:42;14.80;1.00
2945;DHT22;1482;51.398;7.128;2022-11-13T15:58:14;14.70;1.00
2945;DHT22;1482;51.398;7.128;2022-11-13T16:00:40;14.70;1.00
2945;DHT22;1482;51.398;7.128;2022-11-13T16:03:08;14.70;1.00
2945;DHT22;1482;51.398;7.128;2022-11-13T16:05:36;14.60;1.00
2945;DHT22;1482;51.398;7.128;2022-11-13T16:08:11;14.60;1.00
2945;DHT22;1482;51.398;7.128;2022-11-13T16:10:37;14.50;1.00
2945;DHT22;1482;51.398;7.128;2022-11-13T16:13:03;14.40;1.00
2945;DHT22;1482;51.398;7.128;2022-11-13T16:15:28;14.20;1.00
2945;DHT22;1482;51.398;7.128;2022-11-13T16:17:55;14.20;1.00
2945;DHT22;1482;51.398;7.128;2022-11-13T16:20:22;14.20;1.00
2945;DHT22;1482;51.398;7.128;2022-11-13T16:22:48;14.20;1.00
2945;DHT22;1482;51.398;7.128;2022-11-13T16:25:19;14.20;1.00
2945;DHT22;1482;51.398;7.128;2022-11-13T16:27:45;14.20;1.00
2945;DHT22;1482;51.398;7.128;2022-11-13T16:30:16;14.20;1.00
2945;DHT22;1482;51.398;7.128;2022-11-13T16:32:44;14.10;1.00
2945;DHT22;1482;51.398;7.128;2022-11-13T16:35:14;14.00;1.00
2945;DHT22;1482;51.398;7.128;2022-11-13T16:37:40;13.90;1.00
2945;DHT22;1482;51.398;7.128;2022-11-13T16:40:17;13.90;1.00
2945;DHT22;1482;51.398;7.128;2022-11-13T16:42:43;13.80;1.00
2945;DHT22;1482;51.398;7.128;2022-11-13T16:45:08;13.80;1.00
2945;DHT22;1482;51.398;7.128;2022-11-13T16:47:34;13.70;1.00
2945;DHT22;1482;51.398;7.128;2022-11-13T16:50:00;13.70;1.00
2945;DHT22;1482;51.398;7.128;2022-11-13T16:52:26;13.50;1.00
2945;DHT22;1482;51.398;7.128;2022-11-13T16:54:52;13.60;1.00
2945;DHT22;1482;51.398;7.128;2022-11-13T16:57:17;13.60;1.00
2945;DHT22;1482;51.398;7.128;2022-11-13T16:59:44;13.50;1.00
2945;DHT22;1482;51.398;7.128;2022-11-13T17:02:12;13.50;1.00
2945;DHT22;1482;51.398;7.128;2022-11-13T17:04:38;13.30;1.00
2945;DHT22;1482;51.398;7.128;2022-11-13T17:07:04;13.30;1.00
2945;DHT22;1482;51.398;7.128;2022-11-13T17:09:29;13.30;1.00
2945;DHT22;1482;51.398;7.128;2022-11-13T17:11:55;13.30;1.00
2945;DHT22;1482;51.398;7.128;2022-11-13T17:14:20;13.20;1.00
2945;DHT22;1482;51.398;7.128;2022-11-13T17:16:46;13.20;1.00
2945;DHT22;1482;51.398;7.128;2022-11-13T17:19:12;13.20;1.00
2945;DHT22;1482;51.398;7.128;2022-11-13T17:21:39;13.20;1.00
2945;DHT22;1482;51.398;7.128;2022-11-13T17:24:04;13.10;1.00
2945;DHT22;1482;51.398;7.128;2022-11-13T17:26:30;13.00;1.00
2945;DHT22;1482;51.398;7.128;2022-11-13T17:28:57;12.90;1.00
2945;DHT22;1482;51.398;7.128;2022-11-13T17:31:24;12.80;1.00
2945;DHT22;1482;51.398;7.128;2022-11-13T17:33:53;12.80;1.00
2945;DHT22;1482;51.398;7.128;2022-11-13T17:36:19;12.70;1.00
2945;DHT22;1482;51.398;7.128;2022-11-13T17:38:45;12.70;1.00
2945;DHT22;1482;51.398;7.128;2022-11-13T17:41:11;12.60;1.00
2945;DHT22;1482;51.398;7.128;2022-11-13T17:43:38;12.60;1.00
2945;DHT22;1482;51.398;7.128;2022-11-13T17:46:05;12.60;1.00
2945;DHT22;1482;51.398;7.128;2022-11-13T17:48:32;12.50;1.00
2945;DHT22;1482;51.398;7.128;2022-11-13T17:51:00;12.50;1.00
2945;DHT22;1482;51.398;7.128;2022-11-13T17:53:26;12.40;1.00
2945;DHT22;1482;51.398;7.128;2022-11-13T17:55:56;12.40;1.00
2945;DHT22;1482;51.398;7.128;2022-11-13T17:58:22;12.30;1.00
2945;DHT22;1482;51.398;7.128;2022-11-13T18:00:48;12.30;1.00